Time;durP1;ratioP1;P1;durP2;ratioP2;P2;SDS_P1;SDS_P2;PMS_P1;PMS_P2;Temp;Humidity;BMP_temperature;BMP_pressure;BME280_temperature;BME280_humidity;BME280_pressure;Samples;Min_cycle;Max_cycle;Signal;HPM_P1;HPM_P2
2022/11/05 00:09:35;;;;;;;;;;;20.80;94.50;;;;;;5130204;28;20283;-81
2022/11/05 00:20:28;;;;;;;;;;;21.10;95.40;;;;;;5124813;28;19924;-80
2022/11/05 00:25:52;;;;;;;;;;;22.30;95.80;;;;;;5125008;28;19943;-81
2022/11/05 06:18:13;;;;;;;;;;;20.50;99.90;;;;;;5509905;22;19933;-81
2022/11/05 06:20:41;;;;;;;;;;;20.60;99.90;;;;;;5037002;28;20292;-81
2022/11/05 06:23:08;;;;;;;;;;;20.60;99.90;;;;;;5037439;28;19935;-80
2022/11/05 06:25:35;;;;;;;;;;;20.60;99.90;;;;;;5036693;28;20384;-80
2022/11/05 06:28:01;;;;;;;;;;;20.60;99.90;;;;;;5037507;28;19933;-80
2022/11/05 06:30:28;;;;;;;;;;;20.60;99.90;;;;;;5037986;28;19951;-80
2022/11/05 06:32:55;;;;;;;;;;;20.60;99.90;;;;;;5038347;28;19939;-80
2022/11/05 06:35:21;;;;;;;;;;;20.70;99.90;;;;;;5047792;28;19931;-80
2022/11/05 06:37:49;;;;;;;;;;;20.60;99.90;;;;;;5039461;28;20396;-80
2022/11/05 06:40:16;;;;;;;;;;;20.60;99.90;;;;;;5040384;28;19932;-80
2022/11/05 06:42:42;;;;;;;;;;;20.60;99.90;;;;;;5038826;28;19925;-80
2022/11/05 06:45:09;;;;;;;;;;;20.60;99.90;;;;;;5040029;28;19925;-79
2022/11/05 06:47:36;;;;;;;;;;;20.60;99.90;;;;;;5040563;28;19925;-80
2022/11/05 06:50:02;;;;;;;;;;;20.50;99.90;;;;;;5038602;28;19925;-80
2022/11/05 06:52:30;;;;;;;;;;;20.60;99.90;;;;;;5037607;28;20377;-80
2022/11/05 06:54:58;;;;;;;;;;;20.60;99.90;;;;;;5038498;28;19925;-80
2022/11/05 06:57:25;;;;;;;;;;;20.60;99.90;;;;;;5038429;28;19964;-80
2022/11/05 06:59:51;;;;;;;;;;;20.60;99.90;;;;;;5037046;28;19933;-80
2022/11/05 07:02:18;;;;;;;;;;;20.60;99.90;;;;;;5038137;28;19931;-80
2022/11/05 07:04:44;;;;;;;;;;;20.60;99.90;;;;;;5042203;28;19934;-81
2022/11/05 07:07:11;;;;;;;;;;;20.60;99.90;;;;;;5042167;28;19947;-81
2022/11/05 07:09:41;;;;;;;;;;;20.60;99.90;;;;;;5042970;28;20092;-80
2022/11/05 07:12:09;;;;;;;;;;;20.60;99.90;;;;;;5044365;28;19963;-80
2022/11/05 07:14:36;;;;;;;;;;;20.60;99.90;;;;;;5041457;28;19991;-80
2022/11/05 07:17:03;;;;;;;;;;;20.60;99.90;;;;;;5039133;28;19931;-81
2022/11/05 07:19:29;;;;;;;;;;;20.60;99.90;;;;;;5036574;28;19932;-81
2022/11/05 07:21:56;;;;;;;;;;;20.60;99.90;;;;;;5036675;28;19932;-81
2022/11/05 07:24:22;;;;;;;;;;;20.40;99.90;;;;;;5036506;28;19925;-80
2022/11/05 07:26:49;;;;;;;;;;;20.70;99.90;;;;;;5036538;28;19925;-81
2022/11/05 07:29:17;;;;;;;;;;;20.60;99.90;;;;;;5036505;28;19925;-79
2022/11/05 07:31:45;;;;;;;;;;;20.60;99.90;;;;;;5036491;28;20364;-79
2022/11/05 07:34:11;;;;;;;;;;;20.60;99.90;;;;;;5036765;28;19925;-79
2022/11/05 07:36:38;;;;;;;;;;;20.50;99.90;;;;;;5037022;28;20024;-80
2022/11/05 07:39:05;;;;;;;;;;;20.60;99.90;;;;;;5038620;28;19925;-80
2022/11/05 07:41:31;;;;;;;;;;;20.60;99.90;;;;;;5036429;28;19925;-80
2022/11/05 07:43:58;;;;;;;;;;;20.50;99.90;;;;;;5036022;28;20392;-79
2022/11/05 07:46:26;;;;;;;;;;;20.50;99.90;;;;;;5036018;28;19928;-79
2022/11/05 07:48:52;;;;;;;;;;;20.60;99.90;;;;;;5035768;28;19925;-79
2022/11/05 07:51:19;;;;;;;;;;;20.40;99.90;;;;;;5036116;28;20296;-79
2022/11/05 07:53:47;;;;;;;;;;;20.50;99.90;;;;;;5036173;28;19925;-79
2022/11/05 07:56:14;;;;;;;;;;;20.60;99.90;;;;;;5036780;28;19971;-79
2022/11/05 07:58:40;;;;;;;;;;;20.50;99.90;;;;;;5036162;28;19925;-80
2022/11/05 08:01:07;;;;;;;;;;;20.60;99.90;;;;;;5037547;28;19975;-79
2022/11/05 08:03:35;;;;;;;;;;;20.50;99.90;;;;;;5038626;28;20023;-80
2022/11/05 08:06:02;;;;;;;;;;;20.50;99.90;;;;;;5036301;28;19932;-80
2022/11/05 08:08:28;;;;;;;;;;;20.50;99.90;;;;;;5035351;28;20304;-80
2022/11/05 08:11:01;;;;;;;;;;;20.60;99.90;;;;;;5035631;28;19931;-80
2022/11/05 08:13:30;;;;;;;;;;;20.40;99.90;;;;;;5035938;28;19936;-82
2022/11/05 08:15:56;;;;;;;;;;;20.60;99.90;;;;;;5035742;28;19925;-84
2022/11/05 08:18:30;;;;;;;;;;;20.30;99.90;;;;;;5036579;28;19926;-86
2022/11/05 08:20:59;;;;;;;;;;;20.40;99.90;;;;;;5034496;28;19932;-85
2022/11/05 08:23:25;;;;;;;;;;;20.50;99.90;;;;;;5034590;28;19925;-84
2022/11/05 08:25:52;;;;;;;;;;;20.50;99.90;;;;;;5037197;28;20019;-85
2022/11/05 08:28:20;;;;;;;;;;;20.50;99.90;;;;;;5038545;28;20008;-83
2022/11/05 08:30:48;;;;;;;;;;;21.90;99.90;;;;;;5037998;28;19929;-81
2022/11/05 08:33:15;;;;;;;;;;;20.60;99.90;;;;;;5036928;28;19925;-84
2022/11/05 08:35:42;;;;;;;;;;;20.70;99.90;;;;;;5034850;28;19932;-84
2022/11/05 08:38:12;;;;;;;;;;;20.60;99.90;;;;;;5034427;28;19933;-83
2022/11/05 08:40:39;;;;;;;;;;;20.40;99.90;;;;;;5034389;28;20399;-83
2022/11/05 08:43:06;;;;;;;;;;;20.60;99.90;;;;;;5035661;28;20300;-82
2022/11/05 08:45:34;;;;;;;;;;;20.60;99.90;;;;;;5037257;28;20332;-82
2022/11/05 08:48:01;;;;;;;;;;;20.10;99.90;;;;;;5035670;28;20287;-83
2022/11/05 08:50:28;;;;;;;;;;;20.60;99.90;;;;;;5036377;28;19925;-82
2022/11/05 08:52:54;;;;;;;;;;;20.60;99.90;;;;;;5038376;28;19931;-83
2022/11/05 08:55:22;;;;;;;;;;;20.60;99.90;;;;;;5041702;28;19932;-82
2022/11/05 08:57:54;;;;;;;;;;;20.60;99.90;;;;;;5040610;28;19925;-83
2022/11/05 09:00:21;;;;;;;;;;;20.60;99.90;;;;;;5040696;28;19929;-82
2022/11/05 09:02:48;;;;;;;;;;;20.60;99.90;;;;;;5038564;28;19925;-84
2022/11/05 09:05:14;;;;;;;;;;;20.60;99.90;;;;;;5035409;28;19925;-83
2022/11/05 09:07:41;;;;;;;;;;;20.60;99.90;;;;;;5035883;28;19932;-83
2022/11/05 09:10:08;;;;;;;;;;;20.70;99.90;;;;;;5036901;28;19931;-83
2022/11/05 09:12:36;;;;;;;;;;;20.60;99.90;;;;;;5034718;28;19931;-83
2022/11/05 09:15:02;;;;;;;;;;;20.60;99.90;;;;;;5039123;28;19931;-81
2022/11/05 09:17:29;;;;;;;;;;;20.60;99.90;;;;;;5044613;28;19925;-81
2022/11/05 09:19:56;;;;;;;;;;;20.70;99.90;;;;;;5040518;28;19925;-83
2022/11/05 09:22:22;;;;;;;;;;;20.70;99.90;;;;;;5039114;28;19925;-86
2022/11/05 09:24:49;;;;;;;;;;;20.70;99.90;;;;;;5039134;28;20004;-84
2022/11/05 09:27:15;;;;;;;;;;;20.50;99.90;;;;;;5040530;28;19925;-83
2022/11/05 09:29:43;;;;;;;;;;;20.80;99.90;;;;;;5040528;28;19925;-82
2022/11/05 09:32:10;;;;;;;;;;;20.80;99.90;;;;;;5040679;28;20311;-79
2022/11/05 09:34:37;;;;;;;;;;;20.80;99.90;;;;;;5042180;28;19925;-80
2022/11/05 09:37:04;;;;;;;;;;;20.80;99.90;;;;;;5039977;28;19925;-80
2022/11/05 09:39:30;;;;;;;;;;;20.90;99.90;;;;;;5039043;28;19948;-82
2022/11/05 09:41:59;;;;;;;;;;;20.90;99.90;;;;;;5040373;28;19932;-82
2022/11/05 09:44:30;;;;;;;;;;;20.80;99.90;;;;;;5039208;28;19933;-83
2022/11/05 09:46:59;;;;;;;;;;;21.00;99.90;;;;;;5038652;28;19925;-84
2022/11/05 09:49:27;;;;;;;;;;;21.00;99.90;;;;;;5037147;28;19932;-84
2022/11/05 09:51:55;;;;;;;;;;;20.70;99.90;;;;;;5036845;28;20008;-84
2022/11/05 09:54:23;;;;;;;;;;;20.90;99.90;;;;;;5037442;28;19932;-84
2022/11/05 09:56:51;;;;;;;;;;;21.30;99.90;;;;;;5038721;28;19925;-83
2022/11/05 09:59:20;;;;;;;;;;;21.00;99.90;;;;;;5038040;28;19932;-84
2022/11/05 10:01:47;;;;;;;;;;;20.80;99.90;;;;;;5038840;28;19925;-83
2022/11/05 10:04:17;;;;;;;;;;;21.00;99.90;;;;;;5039159;28;19975;-81
2022/11/05 10:06:46;;;;;;;;;;;20.80;99.90;;;;;;5044037;28;20353;-83
2022/11/05 10:09:15;;;;;;;;;;;21.20;99.90;;;;;;5043716;28;19932;-84
2022/11/05 10:11:46;;;;;;;;;;;21.20;99.90;;;;;;5043193;28;19925;-84
2022/11/05 10:14:15;;;;;;;;;;;21.20;99.90;;;;;;5043795;28;19929;-84
2022/11/05 10:16:43;;;;;;;;;;;21.30;99.90;;;;;;5042676;28;19981;-84
2022/11/05 10:19:13;;;;;;;;;;;21.30;99.90;;;;;;5042803;28;19927;-84
2022/11/05 10:21:42;;;;;;;;;;;21.30;99.90;;;;;;5043190;28;19928;-83
2022/11/05 10:24:13;;;;;;;;;;;21.30;99.90;;;;;;5042701;28;19929;-82
2022/11/05 10:26:40;;;;;;;;;;;21.40;99.90;;;;;;5043555;28;19971;-84
2022/11/05 10:29:07;;;;;;;;;;;21.40;99.90;;;;;;5042530;28;19947;-84
2022/11/05 10:31:35;;;;;;;;;;;21.30;99.90;;;;;;5042974;28;20341;-83
2022/11/05 10:34:04;;;;;;;;;;;21.40;99.90;;;;;;5043954;28;20350;-84
2022/11/05 10:36:33;;;;;;;;;;;21.40;99.90;;;;;;5044656;28;19925;-83
2022/11/05 10:39:06;;;;;;;;;;;21.40;99.90;;;;;;5044387;28;19975;-79
2022/11/05 10:41:40;;;;;;;;;;;21.40;99.90;;;;;;5042138;28;19929;-81
2022/11/05 10:44:16;;;;;;;;;;;21.40;99.90;;;;;;5042440;28;19980;-81
2022/11/05 10:46:46;;;;;;;;;;;21.40;99.90;;;;;;5041525;28;19970;-81
2022/11/05 10:49:17;;;;;;;;;;;21.40;99.90;;;;;;5041113;28;19960;-81
2022/11/05 10:51:44;;;;;;;;;;;21.40;99.90;;;;;;5040040;28;20313;-82
2022/11/05 10:54:15;;;;;;;;;;;21.40;99.90;;;;;;5042277;28;19972;-82
2022/11/05 10:56:43;;;;;;;;;;;21.40;99.90;;;;;;5040231;28;20035;-82
2022/11/05 10:59:19;;;;;;;;;;;21.30;99.90;;;;;;5041762;28;19929;-82
2022/11/05 11:01:46;;;;;;;;;;;21.30;99.80;;;;;;5041575;28;19925;-80
2022/11/05 11:04:16;;;;;;;;;;;21.30;99.60;;;;;;5042043;28;19932;-82
2022/11/05 11:06:49;;;;;;;;;;;21.30;99.30;;;;;;5043976;28;19948;-80
2022/11/05 11:09:24;;;;;;;;;;;21.30;99.10;;;;;;5044098;28;19925;-79
2022/11/05 11:12:09;;;;;;;;;;;21.30;98.80;;;;;;5045356;28;20430;-80
2022/11/05 11:14:36;;;;;;;;;;;21.30;98.60;;;;;;5044303;28;19925;-80
2022/11/05 11:17:21;;;;;;;;;;;21.30;98.30;;;;;;5038658;28;20107;-80
2022/11/05 11:19:47;;;;;;;;;;;21.30;98.40;;;;;;5031520;28;19926;-81
2022/11/05 11:22:17;;;;;;;;;;;21.30;98.10;;;;;;5039310;28;19932;-81
2022/11/05 11:24:46;;;;;;;;;;;21.30;97.90;;;;;;5039819;28;19981;-80
2022/11/05 11:27:15;;;;;;;;;;;21.30;97.70;;;;;;5036180;28;19976;-80
2022/11/05 11:29:43;;;;;;;;;;;21.20;97.50;;;;;;5037314;28;19979;-82
2022/11/05 11:32:12;;;;;;;;;;;21.40;97.40;;;;;;5036721;28;19948;-81
2022/11/05 11:34:40;;;;;;;;;;;21.40;97.30;;;;;;5036471;28;19929;-82
2022/11/05 11:37:08;;;;;;;;;;;21.40;97.10;;;;;;5036198;28;19932;-79
2022/11/05 11:39:35;;;;;;;;;;;21.40;97.00;;;;;;5037195;28;19925;-80
2022/11/05 11:42:07;;;;;;;;;;;21.40;96.90;;;;;;5037881;28;19956;-82
2022/11/05 11:44:36;;;;;;;;;;;21.50;96.80;;;;;;5038053;28;19933;-81
2022/11/05 11:47:04;;;;;;;;;;;21.50;96.60;;;;;;5038114;28;19926;-82
2022/11/05 11:49:33;;;;;;;;;;;21.50;96.50;;;;;;5036460;28;19925;-80
2022/11/05 11:52:00;;;;;;;;;;;21.50;96.40;;;;;;5036551;28;19935;-82
2022/11/05 11:54:27;;;;;;;;;;;21.50;96.20;;;;;;5035783;28;20339;-81
2022/11/05 11:56:54;;;;;;;;;;;21.50;96.00;;;;;;5036297;28;19926;-81
2022/11/05 11:59:24;;;;;;;;;;;21.50;96.00;;;;;;5035808;28;19925;-82
2022/11/05 12:01:59;;;;;;;;;;;21.50;96.00;;;;;;5036432;28;19925;-82
2022/11/05 12:04:30;;;;;;;;;;;21.50;95.90;;;;;;5036901;28;19932;-82
2022/11/05 12:07:04;;;;;;;;;;;21.60;95.80;;;;;;5035993;28;20373;-82
2022/11/05 12:09:37;;;;;;;;;;;21.50;95.60;;;;;;5036717;28;19932;-81
2022/11/05 12:12:09;;;;;;;;;;;21.10;95.40;;;;;;5036056;28;19925;-86
2022/11/05 12:14:41;;;;;;;;;;;21.50;95.50;;;;;;5034916;28;19932;-86
2022/11/05 12:17:19;;;;;;;;;;;21.30;95.40;;;;;;5034940;28;19925;-82
2022/11/05 12:19:55;;;;;;;;;;;21.60;95.50;;;;;;5034651;28;19925;-83
2022/11/05 12:22:25;;;;;;;;;;;21.60;95.50;;;;;;5035142;28;19926;-83
2022/11/05 12:24:57;;;;;;;;;;;21.60;95.40;;;;;;5035993;28;20024;-83
2022/11/05 12:27:30;;;;;;;;;;;21.60;95.40;;;;;;5036262;28;19932;-84
2022/11/05 12:30:02;;;;;;;;;;;21.60;95.40;;;;;;5036695;28;19925;-84
2022/11/05 12:32:32;;;;;;;;;;;21.60;95.40;;;;;;5037091;28;19929;-87
2022/11/05 12:35:03;;;;;;;;;;;21.40;95.20;;;;;;5038852;28;19987;-84
2022/11/05 12:37:32;;;;;;;;;;;21.60;95.30;;;;;;5037187;28;19937;-85
2022/11/05 12:40:03;;;;;;;;;;;21.60;95.30;;;;;;5037407;28;19925;-84
2022/11/05 12:42:36;;;;;;;;;;;22.20;95.60;;;;;;5036481;28;19929;-85
2022/11/05 12:45:12;;;;;;;;;;;22.40;95.60;;;;;;5036681;28;19925;-85
2022/11/05 12:47:50;;;;;;;;;;;21.60;95.20;;;;;;5038903;28;19932;-84
2022/11/05 12:50:20;;;;;;;;;;;21.70;95.30;;;;;;5040740;28;19925;-86
2022/11/05 12:52:57;;;;;;;;;;;21.70;95.20;;;;;;5040121;28;19925;-87
2022/11/05 12:55:25;;;;;;;;;;;21.70;95.20;;;;;;5038817;28;20392;-87
2022/11/05 12:57:52;;;;;;;;;;;21.70;95.20;;;;;;5038962;28;19925;-88
2022/11/05 13:00:24;;;;;;;;;;;21.70;95.20;;;;;;5040604;28;19925;-85
2022/11/05 13:02:52;;;;;;;;;;;21.70;95.10;;;;;;5041169;28;19925;-85
2022/11/05 13:05:21;;;;;;;;;;;21.70;95.10;;;;;;5039378;28;19932;-84
2022/11/05 13:07:49;;;;;;;;;;;21.70;95.10;;;;;;5040161;28;19925;-82
2022/11/05 13:10:20;;;;;;;;;;;21.70;95.10;;;;;;5040164;28;19925;-83
2022/11/05 13:12:48;;;;;;;;;;;21.70;95.10;;;;;;5039992;28;19936;-84
2022/11/05 13:15:18;;;;;;;;;;;21.70;95.10;;;;;;5041343;28;19947;-83
2022/11/05 13:17:50;;;;;;;;;;;21.70;95.10;;;;;;5040274;28;19931;-84
2022/11/05 13:20:19;;;;;;;;;;;21.70;95.10;;;;;;5039873;28;19925;-84
2022/11/05 13:22:46;;;;;;;;;;;21.70;95.00;;;;;;5040371;28;20059;-84
2022/11/05 13:25:16;;;;;;;;;;;21.70;95.40;;;;;;5040768;28;19925;-84
2022/11/05 13:27:47;;;;;;;;;;;21.70;95.00;;;;;;5040126;28;19925;-84
2022/11/05 13:30:17;;;;;;;;;;;21.70;95.00;;;;;;5039585;28;19932;-84
2022/11/05 13:32:45;;;;;;;;;;;21.50;94.90;;;;;;5039683;28;19925;-84
2022/11/05 13:35:20;;;;;;;;;;;21.70;95.00;;;;;;5040001;28;20335;-85
2022/11/05 13:40:51;;;;;;;;;;;22.00;95.20;;;;;;5040219;28;19928;-84
2022/11/05 13:43:23;;;;;;;;;;;21.70;95.10;;;;;;5041367;28;20392;-83
2022/11/05 13:45:58;;;;;;;;;;;21.70;95.20;;;;;;5038998;28;19929;-82
2022/11/05 13:48:45;;;;;;;;;;;21.70;95.20;;;;;;5038963;28;19932;-83
2022/11/05 13:51:26;;;;;;;;;;;21.70;95.30;;;;;;5021161;28;19925;-82
2022/11/05 13:54:20;;;;;;;;;;;21.70;95.30;;;;;;5038316;28;19933;-81
2022/11/05 13:56:54;;;;;;;;;;;21.70;95.70;;;;;;5038521;28;20300;-81
2022/11/05 13:59:41;;;;;;;;;;;21.70;95.40;;;;;;5038779;28;19929;-80
2022/11/05 14:02:12;;;;;;;;;;;21.70;95.40;;;;;;5034568;28;20408;-81
2022/11/05 14:04:40;;;;;;;;;;;21.70;95.40;;;;;;5037803;28;19925;-81
2022/11/05 14:07:10;;;;;;;;;;;21.70;95.70;;;;;;5038077;28;19930;-81
2022/11/05 14:09:37;;;;;;;;;;;21.70;95.40;;;;;;5038034;28;19925;-84
2022/11/05 14:12:04;;;;;;;;;;;21.70;95.30;;;;;;5038068;28;19925;-80
2022/11/05 14:14:44;;;;;;;;;;;21.70;95.30;;;;;;5038263;28;19933;-79
2022/11/05 14:17:15;;;;;;;;;;;21.70;95.30;;;;;;5037031;28;20376;-78
2022/11/05 14:20:05;;;;;;;;;;;21.70;95.30;;;;;;5037110;28;19925;-78
2022/11/05 14:22:38;;;;;;;;;;;21.70;95.40;;;;;;5037685;28;19925;-80
2022/11/05 14:25:25;;;;;;;;;;;21.70;95.30;;;;;;5037989;28;20385;-79
2022/11/05 14:27:52;;;;;;;;;;;21.70;95.30;;;;;;5036981;28;20369;-79
2022/11/05 14:30:37;;;;;;;;;;;21.70;95.30;;;;;;5039173;28;20297;-83
2022/11/05 14:33:04;;;;;;;;;;;21.70;95.30;;;;;;5039274;28;19925;-83
2022/11/05 14:35:35;;;;;;;;;;;21.70;95.30;;;;;;5038584;28;20296;-83
2022/11/05 14:38:04;;;;;;;;;;;21.70;95.30;;;;;;5040707;28;19932;-82
2022/11/05 14:40:36;;;;;;;;;;;21.70;95.40;;;;;;5041773;28;20391;-83
2022/11/05 14:43:04;;;;;;;;;;;21.60;95.30;;;;;;5038206;28;20380;-83
2022/11/05 14:45:32;;;;;;;;;;;22.20;95.50;;;;;;5038160;28;19925;-83
2022/11/05 14:48:00;;;;;;;;;;;21.70;95.30;;;;;;5038421;28;19925;-83
2022/11/05 14:50:31;;;;;;;;;;;21.70;95.30;;;;;;5037773;28;20396;-83
2022/11/05 14:52:59;;;;;;;;;;;21.70;95.30;;;;;;5038031;28;19932;-83
2022/11/05 14:55:30;;;;;;;;;;;21.70;95.30;;;;;;5038251;28;19932;-86
2022/11/05 14:58:24;;;;;;;;;;;21.70;95.30;;;;;;5039444;28;19929;-84
2022/11/05 15:00:51;;;;;;;;;;;21.70;95.30;;;;;;5040249;28;19929;-84
2022/11/05 15:03:48;;;;;;;;;;;21.70;95.30;;;;;;5040697;28;19925;-84
2022/11/05 15:06:25;;;;;;;;;;;21.70;95.30;;;;;;4998738;28;19936;-85
2022/11/05 15:08:55;;;;;;;;;;;21.70;95.30;;;;;;5031410;28;19925;-84
2022/11/05 15:11:25;;;;;;;;;;;21.70;95.40;;;;;;5038107;28;19925;-85
2022/11/05 15:13:58;;;;;;;;;;;21.70;95.30;;;;;;5036126;28;19926;-85
2022/11/05 15:16:26;;;;;;;;;;;21.70;95.30;;;;;;5037733;28;19932;-85
2022/11/05 15:18:53;;;;;;;;;;;21.70;95.30;;;;;;5037590;28;19925;-85
2022/11/05 15:21:20;;;;;;;;;;;21.70;95.30;;;;;;5037462;28;19936;-84
2022/11/05 15:23:48;;;;;;;;;;;21.70;95.20;;;;;;5037269;28;19924;-84
2022/11/05 15:26:19;;;;;;;;;;;21.80;95.30;;;;;;5039318;28;19925;-84
2022/11/05 15:28:47;;;;;;;;;;;21.70;95.20;;;;;;5038587;28;20281;-84
2022/11/05 15:31:20;;;;;;;;;;;21.70;95.20;;;;;;5038511;28;19931;-84
2022/11/05 15:33:47;;;;;;;;;;;21.70;95.10;;;;;;5039048;28;19929;-79
2022/11/05 15:36:20;;;;;;;;;;;21.70;95.10;;;;;;5035495;28;19925;-79
2022/11/05 15:38:46;;;;;;;;;;;21.70;95.00;;;;;;5035133;28;19932;-79
2022/11/05 15:41:15;;;;;;;;;;;21.70;95.00;;;;;;5035924;28;19925;-83
2022/11/05 15:43:42;;;;;;;;;;;21.70;94.90;;;;;;5037501;28;19978;-85
2022/11/05 15:46:15;;;;;;;;;;;21.70;94.80;;;;;;5037374;28;19932;-84
2022/11/05 15:48:45;;;;;;;;;;;21.70;94.70;;;;;;5036894;28;20304;-83
2022/11/05 15:51:12;;;;;;;;;;;21.70;94.80;;;;;;5037992;28;19932;-84
2022/11/05 15:53:54;;;;;;;;;;;21.70;94.60;;;;;;5036565;28;19932;-83
2022/11/05 15:56:23;;;;;;;;;;;21.70;94.50;;;;;;5037901;28;19975;-83
2022/11/05 15:58:52;;;;;;;;;;;21.30;94.30;;;;;;5037989;28;19932;-84
2022/11/05 16:01:24;;;;;;;;;;;22.70;95.10;;;;;;5035436;28;19925;-80
2022/11/05 16:03:51;;;;;;;;;;;21.70;94.40;;;;;;5035944;28;19964;-80
2022/11/05 16:06:18;;;;;;;;;;;21.70;94.40;;;;;;5036036;28;20019;-80
2022/11/05 16:08:46;;;;;;;;;;;21.70;94.30;;;;;;5036233;28;20381;-80
2022/11/05 16:11:19;;;;;;;;;;;21.70;94.30;;;;;;5035332;28;19932;-80
2022/11/05 16:13:46;;;;;;;;;;;21.70;94.30;;;;;;5035683;28;20301;-80
2022/11/05 16:16:22;;;;;;;;;;;21.70;94.20;;;;;;5036283;28;19925;-80
2022/11/05 16:18:50;;;;;;;;;;;21.70;94.10;;;;;;5035895;28;20020;-80
2022/11/05 16:21:18;;;;;;;;;;;21.70;94.10;;;;;;5036892;28;19932;-81
2022/11/05 16:23:45;;;;;;;;;;;21.70;94.00;;;;;;5041475;28;20295;-80
2022/11/05 16:26:30;;;;;;;;;;;21.70;94.00;;;;;;5049922;28;19931;-81
2022/11/05 16:28:57;;;;;;;;;;;21.70;93.90;;;;;;5047436;28;19925;-79
2022/11/05 16:31:24;;;;;;;;;;;21.70;93.90;;;;;;5040770;28;19925;-81
2022/11/05 16:33:52;;;;;;;;;;;21.70;93.80;;;;;;5040193;28;19931;-81
2022/11/05 16:36:20;;;;;;;;;;;21.70;93.70;;;;;;5039548;28;21469;-80
2022/11/05 16:38:47;;;;;;;;;;;21.70;93.70;;;;;;5039606;28;19925;-80
2022/11/05 16:41:14;;;;;;;;;;;21.70;93.70;;;;;;5039995;28;20391;-80
2022/11/05 16:43:46;;;;;;;;;;;21.70;93.70;;;;;;5041233;28;19929;-82
2022/11/05 16:46:14;;;;;;;;;;;21.70;93.70;;;;;;5039498;28;19925;-82
2022/11/05 16:48:40;;;;;;;;;;;21.70;93.70;;;;;;5038798;28;20442;-82
2022/11/05 16:51:10;;;;;;;;;;;21.70;93.60;;;;;;5039429;28;19925;-82
2022/11/05 16:53:37;;;;;;;;;;;21.70;93.50;;;;;;5039708;28;19932;-82
2022/11/05 16:56:04;;;;;;;;;;;21.70;93.40;;;;;;5038940;28;19925;-78
2022/11/05 16:58:31;;;;;;;;;;;21.70;93.30;;;;;;5035764;28;19925;-78
2022/11/05 17:01:00;;;;;;;;;;;21.70;93.20;;;;;;5033914;28;20384;-78
2022/11/05 17:03:27;;;;;;;;;;;21.50;93.10;;;;;;5040109;28;19925;-80
2022/11/05 17:05:53;;;;;;;;;;;21.70;93.10;;;;;;5042920;28;19925;-80
2022/11/05 17:08:21;;;;;;;;;;;21.60;93.00;;;;;;5040153;28;19925;-80
2022/11/05 17:10:48;;;;;;;;;;;21.70;93.10;;;;;;5042319;28;19929;-80
2022/11/05 17:13:15;;;;;;;;;;;21.70;93.10;;;;;;5042408;28;19925;-80
2022/11/05 17:15:42;;;;;;;;;;;21.70;93.00;;;;;;5048900;28;19925;-80
2022/11/05 17:18:10;;;;;;;;;;;21.70;93.00;;;;;;5047540;28;19925;-81
2022/11/05 17:20:38;;;;;;;;;;;21.70;93.00;;;;;;5040272;28;19925;-80
2022/11/05 17:23:05;;;;;;;;;;;21.70;93.00;;;;;;5035224;28;20377;-80
2022/11/05 17:25:34;;;;;;;;;;;21.70;93.00;;;;;;5035614;28;19926;-79
2022/11/05 17:28:00;;;;;;;;;;;21.70;92.90;;;;;;5035281;28;19925;-79
2022/11/05 17:30:27;;;;;;;;;;;21.70;92.90;;;;;;5036290;28;19932;-79
2022/11/05 17:32:54;;;;;;;;;;;21.70;92.90;;;;;;5035893;28;19931;-78
2022/11/05 17:35:20;;;;;;;;;;;21.50;92.80;;;;;;5034485;28;19956;-78
2022/11/05 17:37:47;;;;;;;;;;;21.70;92.90;;;;;;5037048;28;19925;-80
2022/11/05 17:40:14;;;;;;;;;;;21.70;92.90;;;;;;5039910;28;19925;-79
2022/11/05 17:42:42;;;;;;;;;;;21.80;92.90;;;;;;5038249;28;19926;-79
2022/11/05 17:45:10;;;;;;;;;;;21.70;92.80;;;;;;5038786;28;19925;-79
2022/11/05 17:47:36;;;;;;;;;;;21.70;92.80;;;;;;5038551;28;19925;-79
2022/11/05 17:50:03;;;;;;;;;;;21.70;92.80;;;;;;5038611;28;19925;-80
2022/11/05 17:52:30;;;;;;;;;;;21.70;92.70;;;;;;5038551;28;20016;-80
2022/11/05 17:54:57;;;;;;;;;;;21.70;92.70;;;;;;5039788;28;19926;-80
2022/11/05 17:57:23;;;;;;;;;;;21.70;92.70;;;;;;5038615;28;20399;-80
2022/11/05 17:59:51;;;;;;;;;;;21.70;92.70;;;;;;5038768;28;19932;-80
2022/11/05 18:02:18;;;;;;;;;;;21.70;92.70;;;;;;5040797;28;19925;-80
2022/11/05 18:04:44;;;;;;;;;;;21.70;92.70;;;;;;5038377;28;20384;-79
2022/11/05 18:07:11;;;;;;;;;;;21.70;92.70;;;;;;5038830;28;19925;-79
2022/11/05 18:09:37;;;;;;;;;;;21.70;92.70;;;;;;5038273;28;19929;-80
2022/11/05 18:12:04;;;;;;;;;;;21.70;92.70;;;;;;5037785;28;19932;-81
2022/11/05 18:14:31;;;;;;;;;;;21.70;92.70;;;;;;5038725;28;19932;-81
2022/11/05 18:16:59;;;;;;;;;;;21.70;92.70;;;;;;5038179;28;20360;-81
2022/11/05 18:19:27;;;;;;;;;;;21.70;92.70;;;;;;5037374;28;19925;-81
2022/11/05 18:21:53;;;;;;;;;;;21.70;92.70;;;;;;5037188;28;20450;-81
2022/11/05 18:24:20;;;;;;;;;;;21.70;92.70;;;;;;5037437;28;19925;-81
2022/11/05 18:26:46;;;;;;;;;;;21.70;92.70;;;;;;5038032;28;19925;-82
2022/11/05 18:29:13;;;;;;;;;;;21.70;92.70;;;;;;5041652;28;19929;-78
2022/11/05 18:31:40;;;;;;;;;;;21.70;92.70;;;;;;5038093;28;19931;-79
2022/11/05 18:34:09;;;;;;;;;;;21.70;92.70;;;;;;5037724;28;19932;-81
2022/11/05 18:36:35;;;;;;;;;;;21.70;92.80;;;;;;5038416;28;19928;-81
2022/11/05 18:39:03;;;;;;;;;;;21.70;92.80;;;;;;5038362;28;19925;-81
2022/11/05 18:41:30;;;;;;;;;;;21.70;92.80;;;;;;5040519;28;19927;-80
2022/11/05 18:43:58;;;;;;;;;;;21.70;92.80;;;;;;5038332;28;19925;-78
2022/11/05 18:46:24;;;;;;;;;;;21.70;92.80;;;;;;5037549;28;20328;-78
2022/11/05 18:48:51;;;;;;;;;;;21.60;92.70;;;;;;5037676;28;19925;-79
2022/11/05 18:51:19;;;;;;;;;;;21.70;92.80;;;;;;5038120;28;19933;-79
2022/11/05 18:53:45;;;;;;;;;;;21.70;92.90;;;;;;5037584;28;19925;-78
2022/11/05 18:56:14;;;;;;;;;;;21.70;92.90;;;;;;5037284;28;19932;-79
2022/11/05 18:58:41;;;;;;;;;;;21.70;92.90;;;;;;5037713;28;19940;-79
2022/11/05 19:01:12;;;;;;;;;;;21.80;93.00;;;;;;5037737;28;19931;-79
2022/11/05 19:03:39;;;;;;;;;;;21.80;93.00;;;;;;5037677;28;19926;-79
2022/11/05 19:06:06;;;;;;;;;;;21.70;92.90;;;;;;5037567;28;19925;-79
2022/11/05 19:08:34;;;;;;;;;;;21.70;92.90;;;;;;5038235;28;19947;-79
2022/11/05 19:11:06;;;;;;;;;;;21.80;92.90;;;;;;5038199;28;19925;-79
2022/11/05 19:13:33;;;;;;;;;;;21.70;92.90;;;;;;5038456;28;19951;-79
2022/11/05 19:15:59;;;;;;;;;;;21.70;92.90;;;;;;5037775;28;19925;-79
2022/11/05 19:18:26;;;;;;;;;;;21.70;92.90;;;;;;5037023;28;20400;-79
2022/11/05 19:20:52;;;;;;;;;;;21.70;92.90;;;;;;5037025;28;19929;-79
2022/11/05 19:23:19;;;;;;;;;;;21.80;92.90;;;;;;5037163;28;19925;-79
2022/11/05 19:25:47;;;;;;;;;;;21.70;92.90;;;;;;5035941;28;20380;-79
2022/11/05 19:28:13;;;;;;;;;;;21.70;92.90;;;;;;5035938;28;20300;-79
2022/11/05 19:30:40;;;;;;;;;;;21.70;92.90;;;;;;5037421;28;19932;-78
2022/11/05 19:33:07;;;;;;;;;;;21.70;92.90;;;;;;5037136;28;19932;-78
2022/11/05 19:35:33;;;;;;;;;;;21.90;93.00;;;;;;5037482;28;19975;-79
2022/11/05 19:38:00;;;;;;;;;;;21.70;92.90;;;;;;5037070;28;19932;-79
2022/11/05 19:40:26;;;;;;;;;;;21.70;92.90;;;;;;5036911;28;19932;-79
2022/11/05 19:42:55;;;;;;;;;;;21.70;92.90;;;;;;5037201;28;20300;-79
2022/11/05 19:45:21;;;;;;;;;;;21.70;92.90;;;;;;5037812;28;19925;-79
2022/11/05 19:47:48;;;;;;;;;;;21.70;92.90;;;;;;5036661;28;19925;-79
2022/11/05 19:50:14;;;;;;;;;;;21.70;92.90;;;;;;5037096;28;19926;-79
2022/11/05 19:52:41;;;;;;;;;;;21.70;92.90;;;;;;5036921;28;19925;-78
2022/11/05 19:55:08;;;;;;;;;;;21.70;92.90;;;;;;5036401;28;20381;-79
2022/11/05 19:57:35;;;;;;;;;;;21.70;92.90;;;;;;5035692;28;20000;-81
2022/11/05 20:00:03;;;;;;;;;;;21.70;92.90;;;;;;5034506;28;20400;-79
2022/11/05 20:02:30;;;;;;;;;;;21.70;92.90;;;;;;5035693;28;19932;-79
2022/11/05 20:04:56;;;;;;;;;;;21.70;93.00;;;;;;5035920;28;19925;-80
2022/11/05 20:07:23;;;;;;;;;;;21.70;93.00;;;;;;5037035;28;20285;-81
2022/11/05 20:09:49;;;;;;;;;;;21.70;93.10;;;;;;5039266;28;19925;-81
2022/11/05 20:12:16;;;;;;;;;;;21.70;93.10;;;;;;5039115;28;19972;-81
2022/11/05 20:14:43;;;;;;;;;;;21.70;93.10;;;;;;5037153;28;19929;-81
2022/11/05 20:17:11;;;;;;;;;;;21.70;93.10;;;;;;5036402;28;19947;-81
2022/11/05 20:19:38;;;;;;;;;;;21.70;93.20;;;;;;5035714;28;19925;-81
2022/11/05 20:22:05;;;;;;;;;;;21.70;93.20;;;;;;5036237;28;19925;-80
2022/11/05 20:24:31;;;;;;;;;;;21.70;93.20;;;;;;5036298;28;19933;-80
2022/11/05 20:26:58;;;;;;;;;;;21.70;93.20;;;;;;5036430;28;20008;-81
2022/11/05 20:29:25;;;;;;;;;;;21.70;93.30;;;;;;5035764;28;20376;-81
2022/11/05 20:31:52;;;;;;;;;;;21.70;93.30;;;;;;5036269;28;19925;-81
2022/11/05 20:34:20;;;;;;;;;;;21.70;93.30;;;;;;5036058;28;20328;-81
2022/11/05 20:36:47;;;;;;;;;;;21.70;93.40;;;;;;5036076;28;19932;-81
2022/11/05 20:39:13;;;;;;;;;;;21.70;93.40;;;;;;5035645;28;19936;-81